Vitoria do Mearim, Brazil
Current Conditions -  °F | °C
As of 2:00 PM on Tuesday 21 Oct 2014 (Local Time) from SBSL Reporting Station
Scattered Clouds Scattered Clouds  
Wind Chill: 90°   Ceiling: Unl
Heat Index: 92°   Visibility: 6mi
Dew Point: 66°   Wind: 14mph
Humidity: 46%   Direction: 60°ENE
Pressure: 29.83"   Gusts: NA
Location:  3.46°S, 44.87°W
Report Text: SBSL 211700Z 06012KT 9999 SCT025 32/19 Q1010
Loading
Personal Weather Stations






























Interactive Weather Map
Tropical Storm Tracking
New forecast layout! Learn more

10-Day Weather Forecast

Advertisements
Track Severe Weather on mobile